sensor_id;sensor_type;location;lat;lon;timestamp;pressure;altitude;pressure_sealevel;temperature;humidity
8627;BME280;4351;51.422;6.794;2023-04-19T00:00:39;102586.69;;;11.14;100.00
8627;BME280;4351;51.422;6.794;2023-04-19T00:03:08;102585.72;;;11.17;100.00
8627;BME280;4351;51.422;6.794;2023-04-19T00:05:37;102581.31;;;11.14;100.00
8627;BME280;4351;51.422;6.794;2023-04-19T00:08:05;102572.19;;;11.19;100.00
8627;BME280;4351;51.422;6.794;2023-04-19T00:10:34;102578.50;;;11.18;100.00
8627;BME280;4351;51.422;6.794;2023-04-19T00:13:03;102584.75;;;11.20;100.00
8627;BME280;4351;51.422;6.794;2023-04-19T00:15:31;102575.81;;;11.18;100.00
8627;BME280;4351;51.422;6.794;2023-04-19T00:18:00;102576.69;;;11.18;100.00
8627;BME280;4351;51.422;6.794;2023-04-19T00:20:28;102565.63;;;11.26;100.00
8627;BME280;4351;51.422;6.794;2023-04-19T00:22:56;102574.06;;;11.17;100.00
8627;BME280;4351;51.422;6.794;2023-04-19T00:25:25;102569.56;;;11.15;100.00
8627;BME280;4351;51.422;6.794;2023-04-19T00:27:55;102567.19;;;11.06;100.00
8627;BME280;4351;51.422;6.794;2023-04-19T00:30:23;102570.09;;;11.27;100.00
8627;BME280;4351;51.422;6.794;2023-04-19T00:32:52;102567.13;;;11.35;100.00
8627;BME280;4351;51.422;6.794;2023-04-19T00:35:20;102567.09;;;11.09;100.00
8627;BME280;4351;51.422;6.794;2023-04-19T00:37:47;102569.56;;;11.15;100.00
8627;BME280;4351;51.422;6.794;2023-04-19T00:40:15;102565.75;;;11.23;100.00
8627;BME280;4351;51.422;6.794;2023-04-19T00:42:43;102571.31;;;11.18;100.00
8627;BME280;4351;51.422;6.794;2023-04-19T00:45:12;102562.22;;;11.21;100.00
8627;BME280;4351;51.422;6.794;2023-04-19T00:47:40;102559.28;;;11.27;100.00
8627;BME280;4351;51.422;6.794;2023-04-19T00:50:11;102560.94;;;11.31;100.00
8627;BME280;4351;51.422;6.794;2023-04-19T00:52:39;102560.88;;;11.33;100.00
8627;BME280;4351;51.422;6.794;2023-04-19T00:55:07;102556.69;;;11.24;100.00
8627;BME280;4351;51.422;6.794;2023-04-19T00:57:36;102553.97;;;11.24;100.00
8627;BME280;4351;51.422;6.794;2023-04-19T01:00:05;102558.94;;;11.36;100.00
8627;BME280;4351;51.422;6.794;2023-04-19T01:02:37;102553.34;;;11.43;100.00
8627;BME280;4351;51.422;6.794;2023-04-19T01:05:05;102551.69;;;11.38;100.00
8627;BME280;4351;51.422;6.794;2023-04-19T01:07:33;102548.03;;;11.40;100.00
8627;BME280;4351;51.422;6.794;2023-04-19T01:10:01;102535.69;;;11.32;100.00
8627;BME280;4351;51.422;6.794;2023-04-19T01:12:29;102547.28;;;11.36;100.00
8627;BME280;4351;51.422;6.794;2023-04-19T01:14:57;102548.88;;;11.42;100.00
8627;BME280;4351;51.422;6.794;2023-04-19T01:17:26;102538.50;;;11.55;100.00
8627;BME280;4351;51.422;6.794;2023-04-19T01:19:59;102541.72;;;11.41;100.00
8627;BME280;4351;51.422;6.794;2023-04-19T01:22:30;102544.28;;;11.44;100.00
8627;BME280;4351;51.422;6.794;2023-04-19T01:24:58;102540.22;;;11.32;100.00
8627;BME280;4351;51.422;6.794;2023-04-19T01:27:27;102535.81;;;11.55;100.00
8627;BME280;4351;51.422;6.794;2023-04-19T01:29:56;102526.88;;;11.53;100.00
8627;BME280;4351;51.422;6.794;2023-04-19T01:32:25;102536.41;;;11.37;100.00
8627;BME280;4351;51.422;6.794;2023-04-19T01:34:54;102534.84;;;11.30;100.00
8627;BME280;4351;51.422;6.794;2023-04-19T01:37:22;102529.63;;;11.51;100.00
8627;BME280;4351;51.422;6.794;2023-04-19T01:39:52;102534.75;;;11.33;100.00
8627;BME280;4351;51.422;6.794;2023-04-19T01:42:20;102530.72;;;11.45;100.00
8627;BME280;4351;51.422;6.794;2023-04-19T01:44:48;102529.06;;;11.41;100.00
8627;BME280;4351;51.422;6.794;2023-04-19T01:47:18;102529.88;;;11.45;100.00
8627;BME280;4351;51.422;6.794;2023-04-19T01:49:46;102519.69;;;11.77;100.00
8627;BME280;4351;51.422;6.794;2023-04-19T01:52:14;102524.91;;;11.56;100.00
8627;BME280;4351;51.422;6.794;2023-04-19T01:54:42;102526.13;;;11.47;100.00
8627;BME280;4351;51.422;6.794;2023-04-19T01:57:11;102524.00;;;11.57;100.00
8627;BME280;4351;51.422;6.794;2023-04-19T01:59:42;102533.41;;;11.45;100.00
8627;BME280;4351;51.422;6.794;2023-04-19T02:02:10;102526.53;;;11.36;100.00
8627;BME280;4351;51.422;6.794;2023-04-19T02:04:38;102520.94;;;11.43;100.00
8627;BME280;4351;51.422;6.794;2023-04-19T02:07:06;102521.56;;;11.24;100.00
8627;BME280;4351;51.422;6.794;2023-04-19T02:09:34;102516.16;;;11.24;100.00
8627;BME280;4351;51.422;6.794;2023-04-19T02:12:03;102522.75;;;11.15;100.00
8627;BME280;4351;51.422;6.794;2023-04-19T02:14:34;102518.34;;;11.12;100.00
8627;BME280;4351;51.422;6.794;2023-04-19T02:17:02;102512.31;;;11.04;100.00
8627;BME280;4351;51.422;6.794;2023-04-19T02:19:30;102512.63;;;11.22;100.00
8627;BME280;4351;51.422;6.794;2023-04-19T02:21:58;102513.06;;;11.09;100.00
8627;BME280;4351;51.422;6.794;2023-04-19T02:24:25;102513.16;;;11.06;100.00
8627;BME280;4351;51.422;6.794;2023-04-19T02:26:53;102515.66;;;10.85;100.00
8627;BME280;4351;51.422;6.794;2023-04-19T02:29:21;102522.00;;;10.84;100.00
8627;BME280;4351;51.422;6.794;2023-04-19T02:31:50;102511.66;;;10.97;100.00
8627;BME280;4351;51.422;6.794;2023-04-19T02:34:19;102519.06;;;10.90;100.00
8627;BME280;4351;51.422;6.794;2023-04-19T02:36:46;102509.16;;;10.91;100.00
8627;BME280;4351;51.422;6.794;2023-04-19T02:39:15;102517.22;;;10.92;100.00
8627;BME280;4351;51.422;6.794;2023-04-19T02:41:43;102514.00;;;10.81;100.00
8627;BME280;4351;51.422;6.794;2023-04-19T02:44:11;102519.03;;;10.65;100.00
8627;BME280;4351;51.422;6.794;2023-04-19T02:46:47;102512.50;;;10.72;100.00
8627;BME280;4351;51.422;6.794;2023-04-19T02:49:17;102513.56;;;10.66;100.00
8627;BME280;4351;51.422;6.794;2023-04-19T02:51:45;102510.00;;;10.66;100.00
8627;BME280;4351;51.422;6.794;2023-04-19T02:54:13;102503.34;;;11.03;100.00
8627;BME280;4351;51.422;6.794;2023-04-19T02:56:43;102504.97;;;10.82;100.00
8627;BME280;4351;51.422;6.794;2023-04-19T02:59:11;102496.03;;;10.80;100.00
8627;BME280;4351;51.422;6.794;2023-04-19T03:01:39;102493.56;;;11.01;100.00
8627;BME280;4351;51.422;6.794;2023-04-19T03:04:07;102495.94;;;10.83;100.00
8627;BME280;4351;51.422;6.794;2023-04-19T03:06:36;102493.78;;;10.93;100.00
8627;BME280;4351;51.422;6.794;2023-04-19T03:09:04;102493.91;;;10.90;100.00
8627;BME280;4351;51.422;6.794;2023-04-19T03:11:32;102494.59;;;10.97;100.00
8627;BME280;4351;51.422;6.794;2023-04-19T03:14:01;102488.91;;;11.30;100.00
8627;BME280;4351;51.422;6.794;2023-04-19T03:16:29;102481.56;;;11.08;100.00
8627;BME280;4351;51.422;6.794;2023-04-19T03:18:57;102477.63;;;11.19;100.00
8627;BME280;4351;51.422;6.794;2023-04-19T03:21:29;102482.09;;;10.92;100.00
8627;BME280;4351;51.422;6.794;2023-04-19T03:23:59;102484.84;;;11.18;100.00
8627;BME280;4351;51.422;6.794;2023-04-19T03:26:27;102484.78;;;11.20;100.00
8627;BME280;4351;51.422;6.794;2023-04-19T03:28:56;102492.00;;;11.19;100.00
8627;BME280;4351;51.422;6.794;2023-04-19T03:31:35;102494.38;;;11.03;100.00
8627;BME280;4351;51.422;6.794;2023-04-19T03:34:05;102491.16;;;11.19;100.00
8627;BME280;4351;51.422;6.794;2023-04-19T03:36:38;102492.50;;;11.05;100.00
8627;BME280;4351;51.422;6.794;2023-04-19T03:39:08;102496.13;;;11.04;100.00
8627;BME280;4351;51.422;6.794;2023-04-19T03:41:39;102483.59;;;11.01;100.00
8627;BME280;4351;51.422;6.794;2023-04-19T03:44:33;102498.50;;;11.13;100.00
8627;BME280;4351;51.422;6.794;2023-04-19T03:47:04;102486.94;;;11.10;100.00
8627;BME280;4351;51.422;6.794;2023-04-19T03:49:38;102484.25;;;11.10;100.00
8627;BME280;4351;51.422;6.794;2023-04-19T03:52:06;102495.22;;;11.05;100.00
8627;BME280;4351;51.422;6.794;2023-04-19T03:54:36;102481.69;;;11.31;100.00
8627;BME280;4351;51.422;6.794;2023-04-19T03:57:08;102490.31;;;11.17;100.00
8627;BME280;4351;51.422;6.794;2023-04-19T03:59:38;102490.31;;;11.17;100.00
8627;BME280;4351;51.422;6.794;2023-04-19T04:02:07;102489.00;;;11.01;100.00
8627;BME280;4351;51.422;6.794;2023-04-19T04:04:36;102483.81;;;11.22;100.00
8627;BME280;4351;51.422;6.794;2023-04-19T04:07:04;102488.91;;;11.04;100.00
8627;BME280;4351;51.422;6.794;2023-04-19T04:09:32;102486.50;;;10.97;100.00
8627;BME280;4351;51.422;6.794;2023-04-19T04:12:03;102487.09;;;11.05;100.00
8627;BME280;4351;51.422;6.794;2023-04-19T04:14:31;102486.16;;;11.06;100.00
8627;BME280;4351;51.422;6.794;2023-04-19T04:17:00;102493.06;;;11.15;100.00
8627;BME280;4351;51.422;6.794;2023-04-19T04:19:29;102490.19;;;11.20;100.00
8627;BME280;4351;51.422;6.794;2023-04-19T04:21:59;102488.03;;;11.04;100.00
8627;BME280;4351;51.422;6.794;2023-04-19T04:24:29;102494.25;;;11.06;100.00
8627;BME280;4351;51.422;6.794;2023-04-19T04:27:18;102490.50;;;11.10;100.00
8627;BME280;4351;51.422;6.794;2023-04-19T04:29:48;102496.84;;;10.82;100.00
8627;BME280;4351;51.422;6.794;2023-04-19T04:32:17;102493.94;;;10.88;100.00
8627;BME280;4351;51.422;6.794;2023-04-19T04:34:53;102495.31;;;10.75;100.00
8627;BME280;4351;51.422;6.794;2023-04-19T04:37:32;102507.34;;;10.64;100.00
8627;BME280;4351;51.422;6.794;2023-04-19T04:40:00;102508.38;;;10.60;100.00
8627;BME280;4351;51.422;6.794;2023-04-19T04:42:33;102508.06;;;10.69;100.00
8627;BME280;4351;51.422;6.794;2023-04-19T04:45:05;102502.88;;;10.63;100.00
8627;BME280;4351;51.422;6.794;2023-04-19T04:47:37;102503.41;;;10.46;100.00
8627;BME280;4351;51.422;6.794;2023-04-19T04:50:10;102498.94;;;10.74;100.00
8627;BME280;4351;51.422;6.794;2023-04-19T04:52:38;102498.00;;;10.46;100.00
8627;BME280;4351;51.422;6.794;2023-04-19T04:55:14;102499.88;;;10.44;100.00
8627;BME280;4351;51.422;6.794;2023-04-19T04:57:44;102499.81;;;10.45;100.00
8627;BME280;4351;51.422;6.794;2023-04-19T05:00:21;102493.09;;;10.30;100.00
8627;BME280;4351;51.422;6.794;2023-04-19T05:02:58;102494.75;;;10.34;100.00
8627;BME280;4351;51.422;6.794;2023-04-19T05:05:29;102493.66;;;10.40;100.00
8627;BME280;4351;51.422;6.794;2023-04-19T05:07:57;102493.59;;;10.43;100.00
8627;BME280;4351;51.422;6.794;2023-04-19T05:10:25;102498.81;;;10.50;100.00
8627;BME280;4351;51.422;6.794;2023-04-19T05:12:54;102501.06;;;10.35;100.00
8627;BME280;4351;51.422;6.794;2023-04-19T05:15:23;102501.75;;;10.40;100.00
8627;BME280;4351;51.422;6.794;2023-04-19T05:17:53;102508.88;;;10.43;100.00
8627;BME280;4351;51.422;6.794;2023-04-19T05:20:21;102510.84;;;10.07;100.00
8627;BME280;4351;51.422;6.794;2023-04-19T05:22:57;102507.63;;;10.24;100.00
8627;BME280;4351;51.422;6.794;2023-04-19T05:25:26;102516.75;;;10.20;100.00
8627;BME280;4351;51.422;6.794;2023-04-19T05:27:56;102517.78;;;10.16;100.00
8627;BME280;4351;51.422;6.794;2023-04-19T05:30:28;102520.13;;;10.29;100.00
8627;BME280;4351;51.422;6.794;2023-04-19T05:32:56;102517.38;;;10.30;100.00
8627;BME280;4351;51.422;6.794;2023-04-19T05:35:24;102513.22;;;10.49;100.00
8627;BME280;4351;51.422;6.794;2023-04-19T05:37:53;102518.75;;;10.44;100.00
8627;BME280;4351;51.422;6.794;2023-04-19T05:40:22;102514.34;;;10.41;100.00
8627;BME280;4351;51.422;6.794;2023-04-19T05:42:50;102509.59;;;10.78;100.00
8627;BME280;4351;51.422;6.794;2023-04-19T05:45:20;102519.91;;;10.65;100.00
8627;BME280;4351;51.422;6.794;2023-04-19T05:47:48;102508.09;;;10.97;100.00
8627;BME280;4351;51.422;6.794;2023-04-19T05:50:38;102507.75;;;11.06;100.00
8627;BME280;4351;51.422;6.794;2023-04-19T05:53:32;102502.97;;;11.14;100.00
8627;BME280;4351;51.422;6.794;2023-04-19T05:56:00;102510.13;;;11.43;100.00
8627;BME280;4351;51.422;6.794;2023-04-19T05:58:28;102503.16;;;11.10;100.00
8627;BME280;4351;51.422;6.794;2023-04-19T06:00:57;102506.91;;;11.06;100.00
8627;BME280;4351;51.422;6.794;2023-04-19T06:03:25;102493.72;;;11.22;100.00
8627;BME280;4351;51.422;6.794;2023-04-19T06:05:59;102509.38;;;11.12;100.00
8627;BME280;4351;51.422;6.794;2023-04-19T06:08:27;102517.41;;;10.88;100.00
8627;BME280;4351;51.422;6.794;2023-04-19T06:10:55;102521.47;;;10.42;100.00
8627;BME280;4351;51.422;6.794;2023-04-19T06:13:33;102526.16;;;10.37;100.00
8627;BME280;4351;51.422;6.794;2023-04-19T06:16:03;102527.00;;;10.39;100.00
8627;BME280;4351;51.422;6.794;2023-04-19T06:18:31;102528.16;;;10.30;100.00
8627;BME280;4351;51.422;6.794;2023-04-19T06:20:59;102526.00;;;10.13;100.00
8627;BME280;4351;51.422;6.794;2023-04-19T06:23:27;102515.78;;;10.23;100.00
8627;BME280;4351;51.422;6.794;2023-04-19T06:25:55;102520.88;;;10.04;100.00
8627;BME280;4351;51.422;6.794;2023-04-19T06:28:23;102516.13;;;10.12;100.00
8627;BME280;4351;51.422;6.794;2023-04-19T06:30:52;102525.59;;;9.95;100.00
8627;BME280;4351;51.422;6.794;2023-04-19T06:33:21;102514.38;;;10.11;100.00
8627;BME280;4351;51.422;6.794;2023-04-19T06:35:49;102523.03;;;9.91;100.00
8627;BME280;4351;51.422;6.794;2023-04-19T06:38:17;102511.50;;;9.85;100.00
8627;BME280;4351;51.422;6.794;2023-04-19T06:40:45;102523.59;;;9.72;100.00
8627;BME280;4351;51.422;6.794;2023-04-19T06:43:13;102518.03;;;9.78;100.00
8627;BME280;4351;51.422;6.794;2023-04-19T06:45:41;102509.38;;;9.97;100.00
8627;BME280;4351;51.422;6.794;2023-04-19T06:48:09;102507.31;;;10.07;100.00
8627;BME280;4351;51.422;6.794;2023-04-19T06:50:39;102505.28;;;9.83;100.00
8627;BME280;4351;51.422;6.794;2023-04-19T06:53:08;102506.69;;;9.97;100.00
8627;BME280;4351;51.422;6.794;2023-04-19T06:55:36;102500.75;;;10.16;100.00
8627;BME280;4351;51.422;6.794;2023-04-19T06:58:04;102507.63;;;10.24;100.00
8627;BME280;4351;51.422;6.794;2023-04-19T07:00:35;102491.81;;;10.42;100.00
8627;BME280;4351;51.422;6.794;2023-04-19T07:03:03;102478.69;;;10.60;100.00
8627;BME280;4351;51.422;6.794;2023-04-19T07:05:32;102482.00;;;10.68;100.00
8627;BME280;4351;51.422;6.794;2023-04-19T07:08:02;102477.97;;;10.82;100.00
8627;BME280;4351;51.422;6.794;2023-04-19T07:10:30;102484.16;;;10.86;100.00
8627;BME280;4351;51.422;6.794;2023-04-19T07:12:57;102471.59;;;10.85;100.00
8627;BME280;4351;51.422;6.794;2023-04-19T07:15:25;102462.78;;;11.31;100.00
8627;BME280;4351;51.422;6.794;2023-04-19T07:17:53;102469.09;;;11.06;100.00
8627;BME280;4351;51.422;6.794;2023-04-19T07:20:21;102457.22;;;11.35;100.00
8627;BME280;4351;51.422;6.794;2023-04-19T07:22:49;102454.66;;;11.56;100.00
8627;BME280;4351;51.422;6.794;2023-04-19T07:25:18;102457.16;;;11.87;100.00
8627;BME280;4351;51.422;6.794;2023-04-19T07:27:46;102452.16;;;11.98;100.00
8627;BME280;4351;51.422;6.794;2023-04-19T07:30:14;102449.06;;;11.61;100.00
8627;BME280;4351;51.422;6.794;2023-04-19T07:32:43;102450.09;;;11.82;100.00
8627;BME280;4351;51.422;6.794;2023-04-19T07:35:12;102441.13;;;11.80;100.00
8627;BME280;4351;51.422;6.794;2023-04-19T07:37:40;102456.25;;;11.86;100.00
8627;BME280;4351;51.422;6.794;2023-04-19T07:40:09;102441.84;;;11.37;100.00
8627;BME280;4351;51.422;6.794;2023-04-19T07:42:38;102446.78;;;11.50;100.00
8627;BME280;4351;51.422;6.794;2023-04-19T07:45:07;102447.97;;;11.67;100.00
8627;BME280;4351;51.422;6.794;2023-04-19T07:47:35;102442.84;;;11.83;100.00
8627;BME280;4351;51.422;6.794;2023-04-19T07:50:04;102454.78;;;11.77;100.00
8627;BME280;4351;51.422;6.794;2023-04-19T07:52:33;102444.03;;;11.76;100.00
8627;BME280;4351;51.422;6.794;2023-04-19T07:55:01;102426.44;;;11.88;100.00
8627;BME280;4351;51.422;6.794;2023-04-19T07:57:28;102441.59;;;11.92;100.00
8627;BME280;4351;51.422;6.794;2023-04-19T07:59:58;102430.13;;;11.85;100.00
8627;BME280;4351;51.422;6.794;2023-04-19T08:02:27;102434.47;;;11.67;100.00
8627;BME280;4351;51.422;6.794;2023-04-19T08:04:56;102421.19;;;11.83;100.00
8627;BME280;4351;51.422;6.794;2023-04-19T08:07:24;102415.63;;;11.88;100.00
8627;BME280;4351;51.422;6.794;2023-04-19T08:09:52;102418.03;;;11.95;100.00
8627;BME280;4351;51.422;6.794;2023-04-19T08:12:20;102409.03;;;12.19;100.00
8627;BME280;4351;51.422;6.794;2023-04-19T08:15:07;102428.75;;;11.75;100.00
8627;BME280;4351;51.422;6.794;2023-04-19T08:17:55;102422.25;;;12.03;100.00
8627;BME280;4351;51.422;6.794;2023-04-19T08:20:23;102431.84;;;11.64;100.00
8627;BME280;4351;51.422;6.794;2023-04-19T08:22:53;102419.34;;;11.61;100.00
8627;BME280;4351;51.422;6.794;2023-04-19T08:25:21;102416.25;;;11.94;100.00
8627;BME280;4351;51.422;6.794;2023-04-19T08:27:52;102421.31;;;12.04;100.00
8627;BME280;4351;51.422;6.794;2023-04-19T08:30:21;102408.44;;;12.33;100.00
8627;BME280;4351;51.422;6.794;2023-04-19T08:32:49;102398.75;;;12.50;100.00
8627;BME280;4351;51.422;6.794;2023-04-19T08:35:20;102399.66;;;12.49;100.00
8627;BME280;4351;51.422;6.794;2023-04-19T08:37:48;102398.69;;;12.72;100.00
8627;BME280;4351;51.422;6.794;2023-04-19T08:40:16;102388.38;;;13.02;100.00
8627;BME280;4351;51.422;6.794;2023-04-19T08:42:44;102379.13;;;13.07;100.00
8627;BME280;4351;51.422;6.794;2023-04-19T08:45:15;102380.13;;;13.05;100.00
8627;BME280;4351;51.422;6.794;2023-04-19T08:47:57;102378.22;;;13.07;100.00
8627;BME280;4351;51.422;6.794;2023-04-19T08:50:28;102371.03;;;13.27;100.00
8627;BME280;4351;51.422;6.794;2023-04-19T08:53:06;102397.94;;;12.69;100.00
8627;BME280;4351;51.422;6.794;2023-04-19T08:55:50;102372.03;;;13.24;100.00
8627;BME280;4351;51.422;6.794;2023-04-19T08:58:38;102374.09;;;12.98;100.00
8627;BME280;4351;51.422;6.794;2023-04-19T09:01:25;102372.72;;;13.29;100.00
8627;BME280;4351;51.422;6.794;2023-04-19T09:04:03;102371.81;;;13.29;100.00
8627;BME280;4351;51.422;6.794;2023-04-19T09:06:47;102375.03;;;12.97;100.00
8627;BME280;4351;51.422;6.794;2023-04-19T09:09:16;102358.00;;;13.35;100.00
8627;BME280;4351;51.422;6.794;2023-04-19T09:11:47;102382.47;;;13.13;100.00
8627;BME280;4351;51.422;6.794;2023-04-19T09:14:17;102365.72;;;13.24;100.00
8627;BME280;4351;51.422;6.794;2023-04-19T09:16:46;102361.69;;;13.13;100.00
8627;BME280;4351;51.422;6.794;2023-04-19T09:19:19;102360.47;;;13.20;100.00
8627;BME280;4351;51.422;6.794;2023-04-19T09:21:51;102353.53;;;12.94;100.00
8627;BME280;4351;51.422;6.794;2023-04-19T09:24:38;102365.91;;;12.99;100.00
8627;BME280;4351;51.422;6.794;2023-04-19T09:27:09;102358.13;;;12.92;100.00
8627;BME280;4351;51.422;6.794;2023-04-19T09:29:37;102368.78;;;12.55;100.00
8627;BME280;4351;51.422;6.794;2023-04-19T09:32:05;102361.66;;;12.94;100.00
8627;BME280;4351;51.422;6.794;2023-04-19T09:34:35;102360.78;;;13.33;100.00
8627;BME280;4351;51.422;6.794;2023-04-19T09:37:12;102349.13;;;12.91;100.00
8627;BME280;4351;51.422;6.794;2023-04-19T09:40:20;102338.47;;;13.07;100.00
8627;BME280;4351;51.422;6.794;2023-04-19T09:42:48;102334.91;;;13.45;100.00
8627;BME280;4351;51.422;6.794;2023-04-19T09:45:19;102320.84;;;13.18;100.00
8627;BME280;4351;51.422;6.794;2023-04-19T09:48:00;102319.84;;;13.59;100.00
8627;BME280;4351;51.422;6.794;2023-04-19T09:50:30;102326.63;;;13.49;100.00
8627;BME280;4351;51.422;6.794;2023-04-19T09:53:04;102299.47;;;13.31;100.00
8627;BME280;4351;51.422;6.794;2023-04-19T09:55:33;102261.06;;;13.40;100.00
8627;BME280;4351;51.422;6.794;2023-04-19T09:58:23;102261.94;;;13.21;100.00
8627;BME280;4351;51.422;6.794;2023-04-19T10:01:00;102265.69;;;13.38;100.00
8627;BME280;4351;51.422;6.794;2023-04-19T10:03:42;102251.84;;;13.64;100.00
8627;BME280;4351;51.422;6.794;2023-04-19T10:06:15;102246.00;;;13.72;100.00
8627;BME280;4351;51.422;6.794;2023-04-19T10:09:03;102248.72;;;13.72;100.00
8627;BME280;4351;51.422;6.794;2023-04-19T10:11:33;102276.59;;;13.56;100.00
8627;BME280;4351;51.422;6.794;2023-04-19T10:14:06;102299.88;;;13.21;100.00
8627;BME280;4351;51.422;6.794;2023-04-19T10:16:36;102311.69;;;13.40;100.00
8627;BME280;4351;51.422;6.794;2023-04-19T10:19:08;102306.22;;;13.01;100.00
8627;BME280;4351;51.422;6.794;2023-04-19T10:21:38;102293.28;;;12.68;100.00
8627;BME280;4351;51.422;6.794;2023-04-19T10:24:08;102278.06;;;13.05;100.00
8627;BME280;4351;51.422;6.794;2023-04-19T10:27:05;102281.63;;;13.06;100.00
8627;BME280;4351;51.422;6.794;2023-04-19T10:29:53;102294.34;;;13.63;100.00
8627;BME280;4351;51.422;6.794;2023-04-19T10:32:21;102289.78;;;13.44;100.00
8627;BME280;4351;51.422;6.794;2023-04-19T10:34:51;102309.00;;;12.99;100.00
8627;BME280;4351;51.422;6.794;2023-04-19T10:37:25;102303.66;;;13.38;100.00
8627;BME280;4351;51.422;6.794;2023-04-19T10:39:53;102283.56;;;13.62;100.00
8627;BME280;4351;51.422;6.794;2023-04-19T10:42:21;102284.72;;;13.56;100.00
8627;BME280;4351;51.422;6.794;2023-04-19T10:47:51;102275.94;;;13.70;100.00
8627;BME280;4351;51.422;6.794;2023-04-19T10:50:22;102284.13;;;13.30;100.00
8627;BME280;4351;51.422;6.794;2023-04-19T10:52:52;102263.31;;;13.69;100.00
8627;BME280;4351;51.422;6.794;2023-04-19T10:55:20;102267.75;;;13.89;100.00
8627;BME280;4351;51.422;6.794;2023-04-19T10:58:01;102271.13;;;13.38;100.00
8627;BME280;4351;51.422;6.794;2023-04-19T11:00:30;102279.66;;;13.67;100.00
8627;BME280;4351;51.422;6.794;2023-04-19T11:06:16;102277.13;;;13.64;100.00
8627;BME280;4351;51.422;6.794;2023-04-19T11:08:47;102263.13;;;14.27;100.00
8627;BME280;4351;51.422;6.794;2023-04-19T11:11:15;102234.50;;;14.21;100.00
8627;BME280;4351;51.422;6.794;2023-04-19T11:13:43;102265.88;;;13.53;100.00
8627;BME280;4351;51.422;6.794;2023-04-19T11:16:12;102254.03;;;13.93;100.00
8627;BME280;4351;51.422;6.794;2023-04-19T11:18:40;102259.34;;;13.76;100.00
8627;BME280;4351;51.422;6.794;2023-04-19T11:21:11;102248.13;;;14.02;100.00
8627;BME280;4351;51.422;6.794;2023-04-19T11:23:40;102240.00;;;13.84;100.00
8627;BME280;4351;51.422;6.794;2023-04-19T11:26:10;102243.81;;;14.16;100.00
8627;BME280;4351;51.422;6.794;2023-04-19T11:28:38;102231.03;;;14.35;100.00
8627;BME280;4351;51.422;6.794;2023-04-19T11:31:06;102235.34;;;14.40;100.00
8627;BME280;4351;51.422;6.794;2023-04-19T11:33:35;102228.84;;;14.08;100.00
8627;BME280;4351;51.422;6.794;2023-04-19T11:36:10;102212.22;;;14.32;100.00
8627;BME280;4351;51.422;6.794;2023-04-19T11:38:38;102232.16;;;13.96;100.00
8627;BME280;4351;51.422;6.794;2023-04-19T11:41:06;102196.88;;;14.31;100.00
8627;BME280;4351;51.422;6.794;2023-04-19T11:43:36;102196.19;;;14.44;100.00
8627;BME280;4351;51.422;6.794;2023-04-19T11:46:04;102190.28;;;14.53;100.00
8627;BME280;4351;51.422;6.794;2023-04-19T11:48:33;102170.78;;;14.63;99.69
8627;BME280;4351;51.422;6.794;2023-04-19T11:51:01;102136.41;;;14.62;95.67
8627;BME280;4351;51.422;6.794;2023-04-19T11:53:31;102141.56;;;14.84;95.91
8627;BME280;4351;51.422;6.794;2023-04-19T11:56:03;102113.94;;;14.92;93.35
8627;BME280;4351;51.422;6.794;2023-04-19T11:58:33;102123.53;;;14.81;93.32
8627;BME280;4351;51.422;6.794;2023-04-19T12:01:06;102121.66;;;15.00;95.02
8627;BME280;4351;51.422;6.794;2023-04-19T12:03:38;102121.63;;;14.83;95.41
8627;BME280;4351;51.422;6.794;2023-04-19T12:06:11;102102.72;;;15.45;95.60
8627;BME280;4351;51.422;6.794;2023-04-19T12:08:42;102087.53;;;15.72;95.70
8627;BME280;4351;51.422;6.794;2023-04-19T12:11:11;102086.59;;;15.88;95.42
8627;BME280;4351;51.422;6.794;2023-04-19T12:13:39;102084.59;;;15.60;92.30
8627;BME280;4351;51.422;6.794;2023-04-19T12:16:09;102077.03;;;15.66;92.52
8627;BME280;4351;51.422;6.794;2023-04-19T12:18:44;102076.13;;;15.50;92.18
8627;BME280;4351;51.422;6.794;2023-04-19T12:21:25;102083.13;;;15.55;92.72
8627;BME280;4351;51.422;6.794;2023-04-19T12:23:57;102079.25;;;15.59;93.30
8627;BME280;4351;51.422;6.794;2023-04-19T12:26:25;102083.09;;;15.09;90.20
8627;BME280;4351;51.422;6.794;2023-04-19T12:28:55;102086.91;;;15.21;90.11
8627;BME280;4351;51.422;6.794;2023-04-19T12:31:25;102084.56;;;15.15;90.10
8627;BME280;4351;51.422;6.794;2023-04-19T12:33:53;102084.50;;;15.00;89.49
8627;BME280;4351;51.422;6.794;2023-04-19T12:36:21;102090.44;;;15.38;93.27
8627;BME280;4351;51.422;6.794;2023-04-19T12:38:49;102086.88;;;15.68;93.00
8627;BME280;4351;51.422;6.794;2023-04-19T12:41:17;102088.84;;;15.50;91.19
8627;BME280;4351;51.422;6.794;2023-04-19T12:43:45;102089.78;;;15.34;91.26
8627;BME280;4351;51.422;6.794;2023-04-19T12:46:13;102082.22;;;15.39;90.79
8627;BME280;4351;51.422;6.794;2023-04-19T12:48:42;102079.03;;;15.47;92.56
8627;BME280;4351;51.422;6.794;2023-04-19T12:51:10;102067.59;;;15.57;89.54
8627;BME280;4351;51.422;6.794;2023-04-19T12:53:40;102092.44;;;15.20;89.09
8627;BME280;4351;51.422;6.794;2023-04-19T12:56:08;102080.03;;;15.46;89.73
8627;BME280;4351;51.422;6.794;2023-04-19T12:58:37;102081.66;;;15.49;88.77
8627;BME280;4351;51.422;6.794;2023-04-19T13:01:05;102073.84;;;15.12;88.16
8627;BME280;4351;51.422;6.794;2023-04-19T13:03:33;102070.72;;;15.80;90.17
8627;BME280;4351;51.422;6.794;2023-04-19T13:06:05;102056.66;;;15.73;88.19
8627;BME280;4351;51.422;6.794;2023-04-19T13:08:33;102073.41;;;15.50;87.46
8627;BME280;4351;51.422;6.794;2023-04-19T13:11:12;102072.44;;;15.51;87.17
8627;BME280;4351;51.422;6.794;2023-04-19T13:13:40;102084.59;;;15.29;87.39
8627;BME280;4351;51.422;6.794;2023-04-19T13:16:08;102076.88;;;14.91;85.57
8627;BME280;4351;51.422;6.794;2023-04-19T13:18:37;102085.81;;;15.09;86.41
8627;BME280;4351;51.422;6.794;2023-04-19T13:21:06;102084.03;;;14.76;86.25
8627;BME280;4351;51.422;6.794;2023-04-19T13:23:34;102066.78;;;15.09;88.61
8627;BME280;4351;51.422;6.794;2023-04-19T13:26:02;102108.94;;;14.84;88.25